sensor_id;sensor_type;location;lat;lon;timestamp;pressure;altitude;pressure_sealevel;temperature;humidity
46007;BME280;31738;50.188;8.524;2023-05-18T00:00:06;99853.16;;;10.52;54.49
46007;BME280;31738;50.188;8.524;2023-05-18T00:02:36;99851.53;;;10.51;54.40
46007;BME280;31738;50.188;8.524;2023-05-18T00:05:02;99854.22;;;10.51;53.93
46007;BME280;31738;50.188;8.524;2023-05-18T00:07:28;99858.19;;;10.49;54.02
46007;BME280;31738;50.188;8.524;2023-05-18T00:09:58;99847.16;;;10.45;54.19
46007;BME280;31738;50.188;8.524;2023-05-18T00:12:23;99845.53;;;10.44;54.46
46007;BME280;31738;50.188;8.524;2023-05-18T00:14:49;99848.19;;;10.44;54.45
46007;BME280;31738;50.188;8.524;2023-05-18T00:17:14;99840.41;;;10.43;54.08
46007;BME280;31738;50.188;8.524;2023-05-18T00:19:40;99843.91;;;10.43;54.41
46007;BME280;31738;50.188;8.524;2023-05-18T00:22:06;99837.41;;;10.39;54.67
46007;BME280;31738;50.188;8.524;2023-05-18T00:24:32;99839.19;;;10.33;54.58
46007;BME280;31738;50.188;8.524;2023-05-18T00:26:57;99837.81;;;10.31;55.23
46007;BME280;31738;50.188;8.524;2023-05-18T00:29:23;99840.50;;;10.31;55.17
46007;BME280;31738;50.188;8.524;2023-05-18T00:31:48;99838.06;;;10.29;55.18
46007;BME280;31738;50.188;8.524;2023-05-18T00:34:14;99836.91;;;10.25;54.70
46007;BME280;31738;50.188;8.524;2023-05-18T00:36:41;99825.88;;;10.22;55.04
46007;BME280;31738;50.188;8.524;2023-05-18T00:39:08;99835.78;;;10.21;55.26
46007;BME280;31738;50.188;8.524;2023-05-18T00:41:34;99834.47;;;10.24;54.95
46007;BME280;31738;50.188;8.524;2023-05-18T00:43:59;99829.09;;;10.24;55.28
46007;BME280;31738;50.188;8.524;2023-05-18T00:46:28;99825.97;;;10.27;55.07
46007;BME280;31738;50.188;8.524;2023-05-18T00:48:55;99830.75;;;10.25;55.33
46007;BME280;31738;50.188;8.524;2023-05-18T00:51:22;99822.47;;;10.26;55.31
46007;BME280;31738;50.188;8.524;2023-05-18T00:53:52;99830.50;;;10.26;55.46
46007;BME280;31738;50.188;8.524;2023-05-18T00:56:19;99829.09;;;10.24;55.44
46007;BME280;31738;50.188;8.524;2023-05-18T00:58:51;99829.94;;;10.24;55.06
46007;BME280;31738;50.188;8.524;2023-05-18T01:01:22;99829.59;;;10.21;55.00
46007;BME280;31738;50.188;8.524;2023-05-18T01:04:02;99828.56;;;10.22;54.66
46007;BME280;31738;50.188;8.524;2023-05-18T01:06:30;99821.81;;;10.19;54.79
46007;BME280;31738;50.188;8.524;2023-05-18T01:09:05;99822.03;;;10.18;54.92
46007;BME280;31738;50.188;8.524;2023-05-18T01:12:05;99823.09;;;10.17;54.73
46007;BME280;31738;50.188;8.524;2023-05-18T01:14:45;99819.31;;;10.13;54.94
46007;BME280;31738;50.188;8.524;2023-05-18T01:20:14;99817.09;;;10.10;54.53
46007;BME280;31738;50.188;8.524;2023-05-18T01:25:34;99815.38;;;10.04;54.94
46007;BME280;31738;50.188;8.524;2023-05-18T01:28:13;99813.84;;;10.08;54.82
46007;BME280;31738;50.188;8.524;2023-05-18T01:30:41;99821.78;;;10.03;54.94
46007;BME280;31738;50.188;8.524;2023-05-18T01:33:09;99822.97;;;10.07;54.56
46007;BME280;31738;50.188;8.524;2023-05-18T01:35:35;99820.81;;;10.09;54.94
46007;BME280;31738;50.188;8.524;2023-05-18T01:38:01;99815.47;;;10.09;54.97
46007;BME280;31738;50.188;8.524;2023-05-18T01:40:32;99817.91;;;10.10;54.53
46007;BME280;31738;50.188;8.524;2023-05-18T01:43:05;99810.09;;;10.09;55.12
46007;BME280;31738;50.188;8.524;2023-05-18T01:45:35;99813.47;;;10.04;54.89
46007;BME280;31738;50.188;8.524;2023-05-18T01:48:04;99823.25;;;10.10;55.30
46007;BME280;31738;50.188;8.524;2023-05-18T01:50:35;99814.91;;;10.07;54.88
46007;BME280;31738;50.188;8.524;2023-05-18T01:53:11;99822.97;;;10.07;55.27
46007;BME280;31738;50.188;8.524;2023-05-18T01:55:38;99818.09;;;9.92;55.64
46007;BME280;31738;50.188;8.524;2023-05-18T01:58:05;99823.84;;;9.84;55.61
46007;BME280;31738;50.188;8.524;2023-05-18T02:00:33;99821.75;;;9.86;55.95
46007;BME280;31738;50.188;8.524;2023-05-18T02:02:58;99820.44;;;9.89;56.24
46007;BME280;31738;50.188;8.524;2023-05-18T02:05:24;99807.63;;;9.91;55.95
46007;BME280;31738;50.188;8.524;2023-05-18T02:07:49;99807.63;;;9.91;55.98
46007;BME280;31738;50.188;8.524;2023-05-18T02:10:15;99816.75;;;9.90;56.26
46007;BME280;31738;50.188;8.524;2023-05-18T02:12:41;99807.63;;;9.91;56.02
46007;BME280;31738;50.188;8.524;2023-05-18T02:15:08;99802.28;;;9.91;56.46
46007;BME280;31738;50.188;8.524;2023-05-18T02:17:34;99804.72;;;9.92;56.16
46007;BME280;31738;50.188;8.524;2023-05-18T02:20:03;99803.09;;;9.91;56.56
46007;BME280;31738;50.188;8.524;2023-05-18T02:22:31;99800.66;;;9.90;56.49
46007;BME280;31738;50.188;8.524;2023-05-18T02:24:57;99806.03;;;9.90;56.37
46007;BME280;31738;50.188;8.524;2023-05-18T02:27:22;99796.91;;;9.91;57.11
46007;BME280;31738;50.188;8.524;2023-05-18T02:29:48;99795.31;;;9.90;57.05
46007;BME280;31738;50.188;8.524;2023-05-18T02:32:13;99805.44;;;9.88;56.53
46007;BME280;31738;50.188;8.524;2023-05-18T02:34:39;99810.22;;;9.86;56.84
46007;BME280;31738;50.188;8.524;2023-05-18T02:37:06;99792.53;;;9.85;56.36
46007;BME280;31738;50.188;8.524;2023-05-18T02:39:32;99800.94;;;9.77;56.84
46007;BME280;31738;50.188;8.524;2023-05-18T02:41:58;99805.03;;;9.79;56.66
46007;BME280;31738;50.188;8.524;2023-05-18T02:44:24;99802.25;;;9.74;56.86
46007;BME280;31738;50.188;8.524;2023-05-18T02:46:49;99796.06;;;9.74;57.06
46007;BME280;31738;50.188;8.524;2023-05-18T02:49:15;99796.91;;;9.74;57.14
46007;BME280;31738;50.188;8.524;2023-05-18T02:51:41;99803.53;;;9.72;57.44
46007;BME280;31738;50.188;8.524;2023-05-18T02:54:09;99802.88;;;9.65;57.42
46007;BME280;31738;50.188;8.524;2023-05-18T02:56:37;99795.91;;;9.64;57.18
46007;BME280;31738;50.188;8.524;2023-05-18T02:59:13;99798.84;;;9.62;57.23
46007;BME280;31738;50.188;8.524;2023-05-18T03:01:41;99793.25;;;9.64;57.81
46007;BME280;31738;50.188;8.524;2023-05-18T03:04:07;99795.34;;;9.62;57.43
46007;BME280;31738;50.188;8.524;2023-05-18T03:06:36;99802.56;;;9.61;57.57
46007;BME280;31738;50.188;8.524;2023-05-18T03:09:02;99798.97;;;9.56;57.89
46007;BME280;31738;50.188;8.524;2023-05-18T03:11:39;99800.59;;;9.57;58.08
46007;BME280;31738;50.188;8.524;2023-05-18T03:14:04;99798.41;;;9.54;57.45
46007;BME280;31738;50.188;8.524;2023-05-18T03:16:30;99796.31;;;9.56;58.20
46007;BME280;31738;50.188;8.524;2023-05-18T03:18:55;99796.19;;;9.51;57.84
46007;BME280;31738;50.188;8.524;2023-05-18T03:21:24;99802.03;;;9.48;58.11
46007;BME280;31738;50.188;8.524;2023-05-18T03:23:49;99797.84;;;9.52;58.09
46007;BME280;31738;50.188;8.524;2023-05-18T03:26:15;99793.75;;;9.49;58.41
46007;BME280;31738;50.188;8.524;2023-05-18T03:28:41;99793.53;;;9.51;58.74
46007;BME280;31738;50.188;8.524;2023-05-18T03:31:06;99800.41;;;9.47;58.89
46007;BME280;31738;50.188;8.524;2023-05-18T03:33:32;99792.75;;;9.39;58.79
46007;BME280;31738;50.188;8.524;2023-05-18T03:36:02;99787.41;;;9.39;59.19
46007;BME280;31738;50.188;8.524;2023-05-18T03:38:27;99791.47;;;9.41;58.82
46007;BME280;31738;50.188;8.524;2023-05-18T03:40:59;99792.75;;;9.39;58.50
46007;BME280;31738;50.188;8.524;2023-05-18T03:43:25;99785.22;;;9.36;59.05
46007;BME280;31738;50.188;8.524;2023-05-18T03:45:51;99780.69;;;9.36;59.04
46007;BME280;31738;50.188;8.524;2023-05-18T03:48:17;99787.22;;;9.29;59.17
46007;BME280;31738;50.188;8.524;2023-05-18T03:50:43;99783.50;;;9.30;59.21
46007;BME280;31738;50.188;8.524;2023-05-18T03:53:08;99794.78;;;9.32;59.08
46007;BME280;31738;50.188;8.524;2023-05-18T03:55:34;99791.63;;;9.35;59.26
46007;BME280;31738;50.188;8.524;2023-05-18T03:58:00;99793.72;;;9.33;59.48
46007;BME280;31738;50.188;8.524;2023-05-18T04:00:25;99787.22;;;9.29;59.34
46007;BME280;31738;50.188;8.524;2023-05-18T04:02:51;99783.50;;;9.30;59.53
46007;BME280;31738;50.188;8.524;2023-05-18T04:05:20;99781.88;;;9.29;59.85
46007;BME280;31738;50.188;8.524;2023-05-18T04:07:46;99786.75;;;9.32;59.53
46007;BME280;31738;50.188;8.524;2023-05-18T04:10:12;99785.59;;;9.28;59.89
46007;BME280;31738;50.188;8.524;2023-05-18T04:12:38;99789.66;;;9.30;59.55
46007;BME280;31738;50.188;8.524;2023-05-18T04:15:04;99785.09;;;9.31;59.57
46007;BME280;31738;50.188;8.524;2023-05-18T04:17:30;99784.63;;;9.34;59.25
46007;BME280;31738;50.188;8.524;2023-05-18T04:19:57;99787.88;;;9.36;59.62
46007;BME280;31738;50.188;8.524;2023-05-18T04:22:22;99783.91;;;9.38;59.34
46007;BME280;31738;50.188;8.524;2023-05-18T04:24:48;99791.81;;;9.45;58.99
46007;BME280;31738;50.188;8.524;2023-05-18T04:27:14;99785.97;;;9.48;59.33
46007;BME280;31738;50.188;8.524;2023-05-18T04:29:40;99792.97;;;9.49;59.48
46007;BME280;31738;50.188;8.524;2023-05-18T04:32:08;99799.94;;;9.50;59.36
46007;BME280;31738;50.188;8.524;2023-05-18T04:34:35;99788.75;;;9.53;59.70
46007;BME280;31738;50.188;8.524;2023-05-18T04:37:02;99796.06;;;9.57;59.51
46007;BME280;31738;50.188;8.524;2023-05-18T04:39:33;99797.44;;;9.60;59.59
46007;BME280;31738;50.188;8.524;2023-05-18T04:42:01;99792.66;;;9.62;59.44
46007;BME280;31738;50.188;8.524;2023-05-18T04:44:30;99797.53;;;9.65;59.44
46007;BME280;31738;50.188;8.524;2023-05-18T04:46:59;99793.78;;;9.66;59.05
46007;BME280;31738;50.188;8.524;2023-05-18T04:49:24;99801.91;;;9.71;59.42
46007;BME280;31738;50.188;8.524;2023-05-18T04:51:52;99793.97;;;9.76;59.91
46007;BME280;31738;50.188;8.524;2023-05-18T04:54:27;99798.84;;;9.79;60.04
46007;BME280;31738;50.188;8.524;2023-05-18T04:56:56;99789.75;;;9.80;60.16
46007;BME280;31738;50.188;8.524;2023-05-18T04:59:22;99789.25;;;9.83;60.38
46007;BME280;31738;50.188;8.524;2023-05-18T05:01:52;99788.00;;;9.85;60.08
46007;BME280;31738;50.188;8.524;2023-05-18T05:04:19;99798.47;;;9.87;59.58
46007;BME280;31738;50.188;8.524;2023-05-18T05:06:45;99791.56;;;9.91;59.58
46007;BME280;31738;50.188;8.524;2023-05-18T05:09:11;99791.06;;;9.94;59.18
46007;BME280;31738;50.188;8.524;2023-05-18T05:11:40;99791.41;;;9.97;59.18
46007;BME280;31738;50.188;8.524;2023-05-18T05:14:06;99790.56;;;9.97;58.87
46007;BME280;31738;50.188;8.524;2023-05-18T05:16:32;99795.22;;;10.01;59.20
46007;BME280;31738;50.188;8.524;2023-05-18T05:18:57;99790.53;;;10.08;59.57
46007;BME280;31738;50.188;8.524;2023-05-18T05:21:24;99796.78;;;10.14;59.55
46007;BME280;31738;50.188;8.524;2023-05-18T05:23:50;99787.19;;;10.18;60.11
46007;BME280;31738;50.188;8.524;2023-05-18T05:26:17;99793.72;;;10.22;59.35
46007;BME280;31738;50.188;8.524;2023-05-18T05:28:44;99789.47;;;10.26;59.54
46007;BME280;31738;50.188;8.524;2023-05-18T05:31:09;99793.31;;;10.30;58.91
46007;BME280;31738;50.188;8.524;2023-05-18T05:33:35;99795.50;;;10.33;59.50
46007;BME280;31738;50.188;8.524;2023-05-18T05:36:01;99789.63;;;10.36;59.90
46007;BME280;31738;50.188;8.524;2023-05-18T05:38:26;99800.16;;;10.43;59.56
46007;BME280;31738;50.188;8.524;2023-05-18T05:40:52;99802.59;;;10.44;59.29
46007;BME280;31738;50.188;8.524;2023-05-18T05:43:18;99800.25;;;10.48;59.43
46007;BME280;31738;50.188;8.524;2023-05-18T05:45:45;99801.63;;;10.50;59.11
46007;BME280;31738;50.188;8.524;2023-05-18T05:48:10;99804.63;;;10.54;58.68
46007;BME280;31738;50.188;8.524;2023-05-18T05:50:36;99806.03;;;10.56;58.13
46007;BME280;31738;50.188;8.524;2023-05-18T05:53:03;99805.53;;;10.59;58.67
46007;BME280;31738;50.188;8.524;2023-05-18T05:55:32;99804.53;;;10.65;59.00
46007;BME280;31738;50.188;8.524;2023-05-18T05:57:58;99804.03;;;10.68;58.21
46007;BME280;31738;50.188;8.524;2023-05-18T06:00:23;99801.66;;;10.72;59.03
46007;BME280;31738;50.188;8.524;2023-05-18T06:02:54;99812.47;;;10.77;58.85
46007;BME280;31738;50.188;8.524;2023-05-18T06:05:28;99816.53;;;10.79;58.08
46007;BME280;31738;50.188;8.524;2023-05-18T06:07:55;99805.59;;;10.86;57.91
46007;BME280;31738;50.188;8.524;2023-05-18T06:10:21;99812.91;;;10.90;58.99
46007;BME280;31738;50.188;8.524;2023-05-18T06:12:47;99826.66;;;10.94;58.72
46007;BME280;31738;50.188;8.524;2023-05-18T06:15:13;99824.06;;;10.99;57.97
46007;BME280;31738;50.188;8.524;2023-05-18T06:17:39;99825.41;;;11.01;57.14
46007;BME280;31738;50.188;8.524;2023-05-18T06:20:05;99833.22;;;11.03;57.16
46007;BME280;31738;50.188;8.524;2023-05-18T06:22:31;99833.63;;;11.11;56.44
46007;BME280;31738;50.188;8.524;2023-05-18T06:25:12;99828.84;;;11.18;58.10
46007;BME280;31738;50.188;8.524;2023-05-18T06:28:00;99828.41;;;11.26;58.18
46007;BME280;31738;50.188;8.524;2023-05-18T06:30:54;99833.28;;;11.29;56.62
46007;BME280;31738;50.188;8.524;2023-05-18T06:33:28;99842.53;;;11.38;56.96
46007;BME280;31738;50.188;8.524;2023-05-18T06:35:53;99840.19;;;11.47;56.27
46007;BME280;31738;50.188;8.524;2023-05-18T06:38:19;99834.94;;;11.57;56.79
46007;BME280;31738;50.188;8.524;2023-05-18T06:40:45;99841.28;;;11.67;56.96
46007;BME280;31738;50.188;8.524;2023-05-18T06:43:10;99841.34;;;11.77;56.50
46007;BME280;31738;50.188;8.524;2023-05-18T06:45:47;99844.72;;;11.89;56.08
46007;BME280;31738;50.188;8.524;2023-05-18T06:48:32;99845.31;;;11.96;56.44
46007;BME280;31738;50.188;8.524;2023-05-18T06:50:58;99855.38;;;12.06;56.35
46007;BME280;31738;50.188;8.524;2023-05-18T06:53:23;99847.13;;;12.18;55.65
46007;BME280;31738;50.188;8.524;2023-05-18T06:55:48;99846.72;;;12.31;55.94
46007;BME280;31738;50.188;8.524;2023-05-18T06:58:14;99850.59;;;12.45;56.07
46007;BME280;31738;50.188;8.524;2023-05-18T07:00:41;99850.09;;;12.53;55.70
46007;BME280;31738;50.188;8.524;2023-05-18T07:03:07;99855.56;;;12.63;55.36
46007;BME280;31738;50.188;8.524;2023-05-18T07:05:32;99861.56;;;12.75;55.45
46007;BME280;31738;50.188;8.524;2023-05-18T07:07:58;99856.22;;;12.85;55.08
46007;BME280;31738;50.188;8.524;2023-05-18T07:10:23;99871.91;;;12.93;54.53
46007;BME280;31738;50.188;8.524;2023-05-18T07:12:49;99871.47;;;13.06;55.58
46007;BME280;31738;50.188;8.524;2023-05-18T07:15:15;99870.47;;;13.22;55.22
46007;BME280;31738;50.188;8.524;2023-05-18T07:17:40;99871.88;;;13.34;54.57
46007;BME280;31738;50.188;8.524;2023-05-18T07:20:07;99875.41;;;13.45;54.34
46007;BME280;31738;50.188;8.524;2023-05-18T07:22:33;99875.16;;;13.46;54.62
46007;BME280;31738;50.188;8.524;2023-05-18T07:24:59;99872.78;;;13.60;54.62
46007;BME280;31738;50.188;8.524;2023-05-18T07:27:26;99879.28;;;13.74;54.29
46007;BME280;31738;50.188;8.524;2023-05-18T07:29:51;99876.06;;;13.82;54.02
46007;BME280;31738;50.188;8.524;2023-05-18T07:32:17;99885.28;;;13.91;53.14
46007;BME280;31738;50.188;8.524;2023-05-18T07:34:42;99899.03;;;14.00;52.03
46007;BME280;31738;50.188;8.524;2023-05-18T07:37:11;99899.56;;;13.97;51.38
46007;BME280;31738;50.188;8.524;2023-05-18T07:39:36;99894.44;;;13.95;51.92
46007;BME280;31738;50.188;8.524;2023-05-18T07:42:03;99889.09;;;14.10;52.98
46007;BME280;31738;50.188;8.524;2023-05-18T07:44:28;99886.97;;;14.27;53.26
46007;BME280;31738;50.188;8.524;2023-05-18T07:46:54;99886.16;;;14.42;53.12
46007;BME280;31738;50.188;8.524;2023-05-18T07:49:19;99890.22;;;14.54;52.94
46007;BME280;31738;50.188;8.524;2023-05-18T07:51:47;99885.63;;;14.65;52.74
46007;BME280;31738;50.188;8.524;2023-05-18T07:54:13;99885.91;;;14.68;51.96
46007;BME280;31738;50.188;8.524;2023-05-18T07:56:38;99891.81;;;14.75;51.00
46007;BME280;31738;50.188;8.524;2023-05-18T07:59:05;99888.03;;;14.76;51.28
46007;BME280;31738;50.188;8.524;2023-05-18T08:01:31;99896.94;;;14.72;51.29
46007;BME280;31738;50.188;8.524;2023-05-18T08:03:56;99891.28;;;14.88;52.18
46007;BME280;31738;50.188;8.524;2023-05-18T08:06:22;99900.44;;;14.97;51.21
46007;BME280;31738;50.188;8.524;2023-05-18T08:08:48;99898.25;;;14.99;50.85
46007;BME280;31738;50.188;8.524;2023-05-18T08:11:13;99893.63;;;15.10;51.56
46007;BME280;31738;50.188;8.524;2023-05-18T08:13:39;99899.03;;;15.25;51.95
46007;BME280;31738;50.188;8.524;2023-05-18T08:16:04;99904.69;;;15.38;51.75
46007;BME280;31738;50.188;8.524;2023-05-18T08:18:30;99906.28;;;15.39;51.28
46007;BME280;31738;50.188;8.524;2023-05-18T08:20:55;99907.94;;;15.41;50.72
46007;BME280;31738;50.188;8.524;2023-05-18T08:23:23;99904.63;;;15.49;50.39
46007;BME280;31738;50.188;8.524;2023-05-18T08:25:48;99904.91;;;15.52;50.22
46007;BME280;31738;50.188;8.524;2023-05-18T08:28:14;99895.41;;;15.60;51.03
46007;BME280;31738;50.188;8.524;2023-05-18T08:30:39;99896.16;;;15.70;50.60
46007;BME280;31738;50.188;8.524;2023-05-18T08:33:05;99892.16;;;15.63;50.75
46007;BME280;31738;50.188;8.524;2023-05-18T08:35:30;99894.00;;;15.72;51.30
46007;BME280;31738;50.188;8.524;2023-05-18T08:37:56;99898.75;;;15.90;51.43
46007;BME280;31738;50.188;8.524;2023-05-18T08:40:25;99893.34;;;15.95;51.11
46007;BME280;31738;50.188;8.524;2023-05-18T08:43:14;99901.63;;;16.09;49.54
46007;BME280;31738;50.188;8.524;2023-05-18T08:45:57;99893.22;;;16.15;50.18
46007;BME280;31738;50.188;8.524;2023-05-18T08:48:23;99891.78;;;16.23;50.26
46007;BME280;31738;50.188;8.524;2023-05-18T08:50:50;99898.19;;;16.37;49.91
46007;BME280;31738;50.188;8.524;2023-05-18T08:53:19;99889.47;;;16.45;50.15
46007;BME280;31738;50.188;8.524;2023-05-18T08:55:46;99884.31;;;16.43;50.23
46007;BME280;31738;50.188;8.524;2023-05-18T08:58:16;99886.41;;;16.56;50.18
46007;BME280;31738;50.188;8.524;2023-05-18T09:00:43;99899.72;;;16.53;48.82
46007;BME280;31738;50.188;8.524;2023-05-18T09:03:09;99898.97;;;16.47;47.96
46007;BME280;31738;50.188;8.524;2023-05-18T09:05:35;99906.81;;;16.39;47.94
46007;BME280;31738;50.188;8.524;2023-05-18T09:08:01;99903.84;;;16.40;47.92
46007;BME280;31738;50.188;8.524;2023-05-18T09:10:27;99899.72;;;16.53;49.17
46007;BME280;31738;50.188;8.524;2023-05-18T09:12:53;99891.41;;;16.73;48.91
46007;BME280;31738;50.188;8.524;2023-05-18T09:15:20;99886.34;;;16.95;48.33
46007;BME280;31738;50.188;8.524;2023-05-18T09:17:46;99887.78;;;17.11;48.99
46007;BME280;31738;50.188;8.524;2023-05-18T09:20:11;99887.78;;;17.11;49.14
46007;BME280;31738;50.188;8.524;2023-05-18T09:22:37;99893.09;;;17.21;49.57
46007;BME280;31738;50.188;8.524;2023-05-18T09:25:08;99896.75;;;17.35;48.60
46007;BME280;31738;50.188;8.524;2023-05-18T09:27:33;99891.66;;;17.52;48.35
46007;BME280;31738;50.188;8.524;2023-05-18T09:29:59;99885.25;;;17.67;48.06
46007;BME280;31738;50.188;8.524;2023-05-18T09:32:25;99892.56;;;17.66;46.48
46007;BME280;31738;50.188;8.524;2023-05-18T09:34:51;99888.41;;;17.74;47.60
46007;BME280;31738;50.188;8.524;2023-05-18T09:37:18;99890.66;;;17.90;48.29
46007;BME280;31738;50.188;8.524;2023-05-18T09:39:45;99903.03;;;17.96;46.33
46007;BME280;31738;50.188;8.524;2023-05-18T09:42:11;99895.34;;;18.03;46.25
46007;BME280;31738;50.188;8.524;2023-05-18T09:44:36;99891.00;;;18.21;46.21
46007;BME280;31738;50.188;8.524;2023-05-18T09:47:07;99895.28;;;18.45;46.33
46007;BME280;31738;50.188;8.524;2023-05-18T09:49:33;99901.06;;;18.57;45.51
46007;BME280;31738;50.188;8.524;2023-05-18T09:51:59;99906.91;;;18.64;45.50
46007;BME280;31738;50.188;8.524;2023-05-18T09:54:24;99910.41;;;18.84;45.08
46007;BME280;31738;50.188;8.524;2023-05-18T09:56:50;99910.41;;;18.97;44.21
46007;BME280;31738;50.188;8.524;2023-05-18T09:59:16;99919.19;;;19.08;43.63
46007;BME280;31738;50.188;8.524;2023-05-18T10:01:58;99915.50;;;19.17;42.43
46007;BME280;31738;50.188;8.524;2023-05-18T10:04:40;99939.09;;;18.90;40.96
46007;BME280;31738;50.188;8.524;2023-05-18T10:07:15;99940.63;;;18.63;41.00
46007;BME280;31738;50.188;8.524;2023-05-18T10:09:42;99933.34;;;18.78;42.58
46007;BME280;31738;50.188;8.524;2023-05-18T10:12:15;99933.19;;;19.01;42.71
46007;BME280;31738;50.188;8.524;2023-05-18T10:14:42;99945.72;;;19.16;41.45
46007;BME280;31738;50.188;8.524;2023-05-18T10:17:10;99928.53;;;19.34;42.49
46007;BME280;31738;50.188;8.524;2023-05-18T10:19:37;99946.38;;;19.53;41.68
46007;BME280;31738;50.188;8.524;2023-05-18T10:22:04;99935.63;;;19.62;41.40
46007;BME280;31738;50.188;8.524;2023-05-18T10:24:34;99947.38;;;19.30;40.48
46007;BME280;31738;50.188;8.524;2023-05-18T10:27:05;99954.31;;;18.91;42.00
46007;BME280;31738;50.188;8.524;2023-05-18T10:29:32;99952.78;;;18.85;42.22
46007;BME280;31738;50.188;8.524;2023-05-18T10:31:59;99941.31;;;18.88;42.34
46007;BME280;31738;50.188;8.524;2023-05-18T10:34:28;99945.41;;;19.04;42.08
46007;BME280;31738;50.188;8.524;2023-05-18T10:36:55;99940.44;;;19.06;41.57
46007;BME280;31738;50.188;8.524;2023-05-18T10:39:23;99940.44;;;19.06;41.10
46007;BME280;31738;50.188;8.524;2023-05-18T10:41:49;99935.84;;;19.20;41.96
46007;BME280;31738;50.188;8.524;2023-05-18T10:44:15;99921.38;;;19.38;42.67
46007;BME280;31738;50.188;8.524;2023-05-18T10:46:41;99933.59;;;19.54;41.89
46007;BME280;31738;50.188;8.524;2023-05-18T10:49:08;99942.66;;;19.63;42.09
46007;BME280;31738;50.188;8.524;2023-05-18T10:51:40;99931.88;;;19.58;42.26
46007;BME280;31738;50.188;8.524;2023-05-18T10:54:11;99911.91;;;19.76;43.06
46007;BME280;31738;50.188;8.524;2023-05-18T10:56:41;99918.13;;;19.90;42.22
46007;BME280;31738;50.188;8.524;2023-05-18T10:59:08;99933.28;;;19.69;40.99
46007;BME280;31738;50.188;8.524;2023-05-18T11:01:35;99935.09;;;19.60;41.23
46007;BME280;31738;50.188;8.524;2023-05-18T11:04:04;99926.63;;;19.75;41.76
46007;BME280;31738;50.188;8.524;2023-05-18T11:06:29;99918.94;;;19.90;41.29
46007;BME280;31738;50.188;8.524;2023-05-18T11:08:58;99920.69;;;20.22;41.16
46007;BME280;31738;50.188;8.524;2023-05-18T11:11:23;99920.63;;;20.49;41.53
46007;BME280;31738;50.188;8.524;2023-05-18T11:13:52;99931.69;;;20.53;39.43
46007;BME280;31738;50.188;8.524;2023-05-18T11:16:18;99931.13;;;20.42;39.50
46007;BME280;31738;50.188;8.524;2023-05-18T11:18:49;99945.31;;;20.30;37.84
46007;BME280;31738;50.188;8.524;2023-05-18T11:21:49;99939.81;;;20.44;38.18
46007;BME280;31738;50.188;8.524;2023-05-18T11:24:31;99942.03;;;20.42;37.55
46007;BME280;31738;50.188;8.524;2023-05-18T11:27:00;99928.91;;;20.44;38.84
46007;BME280;31738;50.188;8.524;2023-05-18T11:29:36;99933.13;;;20.50;38.46
46007;BME280;31738;50.188;8.524;2023-05-18T11:32:20;99934.13;;;20.54;38.68
46007;BME280;31738;50.188;8.524;2023-05-18T11:34:50;99920.25;;;20.64;39.49
46007;BME280;31738;50.188;8.524;2023-05-18T11:40:02;99934.16;;;20.98;37.97
46007;BME280;31738;50.188;8.524;2023-05-18T11:42:33;99917.38;;;20.91;38.52
46007;BME280;31738;50.188;8.524;2023-05-18T11:45:09;99925.25;;;20.93;38.11
46007;BME280;31738;50.188;8.524;2023-05-18T11:47:36;99942.31;;;20.76;37.00
46007;BME280;31738;50.188;8.524;2023-05-18T11:50:05;99936.09;;;20.84;37.69
46007;BME280;31738;50.188;8.524;2023-05-18T11:52:31;99931.88;;;21.00;38.42
46007;BME280;31738;50.188;8.524;2023-05-18T11:54:58;99924.59;;;21.09;37.86
46007;BME280;31738;50.188;8.524;2023-05-18T11:59:58;99939.72;;;21.15;37.54
46007;BME280;31738;50.188;8.524;2023-05-18T12:02:31;99933.53;;;21.01;37.82
46007;BME280;31738;50.188;8.524;2023-05-18T12:04:58;99923.84;;;20.95;38.85
46007;BME280;31738;50.188;8.524;2023-05-18T12:07:25;99924.59;;;21.09;37.97
46007;BME280;31738;50.188;8.524;2023-05-18T12:09:56;99926.72;;;21.21;36.99
46007;BME280;31738;50.188;8.524;2023-05-18T12:12:22;99943.72;;;21.18;35.68
46007;BME280;31738;50.188;8.524;2023-05-18T12:14:53;99935.03;;;21.16;36.56
46007;BME280;31738;50.188;8.524;2023-05-18T12:17:20;99939.88;;;21.19;35.86
46007;BME280;31738;50.188;8.524;2023-05-18T12:19:47;99935.84;;;21.16;36.42
46007;BME280;31738;50.188;8.524;2023-05-18T12:22:13;99933.63;;;21.18;36.62
46007;BME280;31738;50.188;8.524;2023-05-18T12:24:40;99930.09;;;21.26;37.24
46007;BME280;31738;50.188;8.524;2023-05-18T12:27:08;99919.56;;;21.33;37.18
46007;BME280;31738;50.188;8.524;2023-05-18T12:29:38;99916.19;;;21.36;38.26
46007;BME280;31738;50.188;8.524;2023-05-18T12:32:05;99920.53;;;21.37;36.90
46007;BME280;31738;50.188;8.524;2023-05-18T12:34:31;99937.94;;;21.19;36.07
46007;BME280;31738;50.188;8.524;2023-05-18T12:36:57;99931.16;;;21.08;36.68
46007;BME280;31738;50.188;8.524;2023-05-18T12:39:24;99927.44;;;21.04;37.03
46007;BME280;31738;50.188;8.524;2023-05-18T12:41:49;99924.84;;;20.99;37.33
46007;BME280;31738;50.188;8.524;2023-05-18T12:44:15;99916.25;;;21.14;37.01
46007;BME280;31738;50.188;8.524;2023-05-18T12:46:41;99928.16;;;21.18;36.51
46007;BME280;31738;50.188;8.524;2023-05-18T12:49:07;99933.25;;;21.11;36.35
46007;BME280;31738;50.188;8.524;2023-05-18T12:51:37;99933.53;;;21.01;35.23
46007;BME280;31738;50.188;8.524;2023-05-18T12:54:05;99925.19;;;20.84;36.23
46007;BME280;31738;50.188;8.524;2023-05-18T12:56:50;99938.34;;;20.82;34.62
46007;BME280;31738;50.188;8.524;2023-05-18T12:59:19;99924.97;;;20.72;35.81
46007;BME280;31738;50.188;8.524;2023-05-18T13:01:45;99920.28;;;20.73;36.51
46007;BME280;31738;50.188;8.524;2023-05-18T13:04:11;99909.56;;;20.76;36.60
46007;BME280;31738;50.188;8.524;2023-05-18T13:06:37;99920.47;;;20.76;36.90
46007;BME280;31738;50.188;8.524;2023-05-18T13:09:06;99919.50;;;20.72;36.58
46007;BME280;31738;50.188;8.524;2023-05-18T13:11:32;99921.09;;;20.73;36.33
46007;BME280;31738;50.188;8.524;2023-05-18T13:14:06;99909.34;;;20.86;36.68
46007;BME280;31738;50.188;8.524;2023-05-18T13:16:33;99909.34;;;20.86;36.54